Time;durP1;ratioP1;P1;durP2;ratioP2;P2;SDS_P1;SDS_P2;PMS_P1;PMS_P2;Temp;Humidity;BMP_temperature;BMP_pressure;BME280_temperature;BME280_humidity;BME280_pressure;Samples;Min_cycle;Max_cycle;Signal;HPM_P1;HPM_P2
2023/07/04 00:00:26;;;;;;;;;;;18.20;99.90;;;;;;5066742;28;19921;-65
2023/07/04 00:02:53;;;;;;;;;;;18.10;99.90;;;;;;5066792;28;19963;-65
2023/07/04 00:05:19;;;;;;;;;;;18.10;99.90;;;;;;5066685;28;19979;-65
2023/07/04 00:07:46;;;;;;;;;;;17.90;99.90;;;;;;5066405;28;19963;-65
2023/07/04 00:10:13;;;;;;;;;;;17.80;99.90;;;;;;5066509;28;19928;-65
2023/07/04 00:12:39;;;;;;;;;;;17.80;99.90;;;;;;5066710;28;20053;-65
2023/07/04 00:15:06;;;;;;;;;;;17.70;99.90;;;;;;5066419;28;20228;-65
2023/07/04 00:17:34;;;;;;;;;;;17.70;99.90;;;;;;5066147;28;19921;-65
2023/07/04 00:20:03;;;;;;;;;;;17.60;99.90;;;;;;5065819;28;19956;-66
2023/07/04 00:22:29;;;;;;;;;;;17.50;99.90;;;;;;5066203;28;19936;-66
2023/07/04 00:24:57;;;;;;;;;;;17.50;99.90;;;;;;5066493;28;19956;-66
2023/07/04 00:27:23;;;;;;;;;;;17.40;99.90;;;;;;5066255;28;20109;-66
2023/07/04 00:29:50;;;;;;;;;;;17.40;99.90;;;;;;5065636;28;19983;-65
2023/07/04 00:32:17;;;;;;;;;;;17.30;99.90;;;;;;5066392;28;20175;-66
2023/07/04 00:34:45;;;;;;;;;;;17.30;99.90;;;;;;5066012;28;19963;-65
2023/07/04 00:37:12;;;;;;;;;;;17.20;99.90;;;;;;5065656;28;19939;-65
2023/07/04 00:39:39;;;;;;;;;;;17.20;99.90;;;;;;5066021;28;19988;-65
2023/07/04 00:42:08;;;;;;;;;;;17.10;99.90;;;;;;5066135;28;19925;-65
2023/07/04 00:44:37;;;;;;;;;;;17.20;99.90;;;;;;5065950;28;20000;-67
2023/07/04 00:47:06;;;;;;;;;;;17.10;99.90;;;;;;5068802;28;20150;-68
2023/07/04 00:49:41;;;;;;;;;;;17.10;99.90;;;;;;5070563;28;19928;-68
2023/07/04 00:52:11;;;;;;;;;;;17.10;99.90;;;;;;5066174;28;20115;-67
2023/07/04 00:54:40;;;;;;;;;;;17.10;99.90;;;;;;5065401;28;19995;-67
2023/07/04 00:57:07;;;;;;;;;;;17.10;99.90;;;;;;5065733;28;20200;-68
2023/07/04 00:59:35;;;;;;;;;;;17.10;99.90;;;;;;5065562;28;19947;-68
2023/07/04 01:02:02;;;;;;;;;;;17.00;99.90;;;;;;5065920;28;20171;-68
2023/07/04 01:04:31;;;;;;;;;;;17.10;99.90;;;;;;5048956;28;20270;-68
2023/07/04 01:07:00;;;;;;;;;;;17.00;99.90;;;;;;5045604;28;20197;-67
2023/07/04 01:09:29;;;;;;;;;;;17.00;99.90;;;;;;5061226;28;19920;-68
2023/07/04 01:11:56;;;;;;;;;;;17.00;99.90;;;;;;5084269;28;19928;-68
2023/07/04 01:14:25;;;;;;;;;;;17.00;99.90;;;;;;5073148;28;19920;-68
2023/07/04 01:16:54;;;;;;;;;;;17.00;99.90;;;;;;5065567;28;20116;-68
2023/07/04 01:19:24;;;;;;;;;;;16.90;99.90;;;;;;5065130;28;19959;-68
2023/07/04 01:21:55;;;;;;;;;;;16.90;99.90;;;;;;5065385;28;19959;-68
2023/07/04 01:24:27;;;;;;;;;;;16.90;99.90;;;;;;5065175;28;19970;-68
2023/07/04 01:26:55;;;;;;;;;;;16.90;99.90;;;;;;5065027;28;19920;-67
2023/07/04 01:29:22;;;;;;;;;;;16.90;99.90;;;;;;5064295;28;19920;-68
2023/07/04 01:31:49;;;;;;;;;;;16.80;99.90;;;;;;5064932;28;20204;-68
2023/07/04 01:34:18;;;;;;;;;;;16.90;99.90;;;;;;5065305;28;20093;-67
2023/07/04 01:36:44;;;;;;;;;;;16.80;99.90;;;;;;5064909;28;19991;-68
2023/07/04 01:39:14;;;;;;;;;;;16.80;99.90;;;;;;5064676;28;19959;-68
2023/07/04 01:41:41;;;;;;;;;;;16.80;99.90;;;;;;5064899;28;19920;-67
2023/07/04 01:44:09;;;;;;;;;;;16.80;99.90;;;;;;5064844;28;19988;-68
2023/07/04 01:46:36;;;;;;;;;;;16.80;99.90;;;;;;5065048;28;19959;-68
2023/07/04 01:49:03;;;;;;;;;;;16.80;99.90;;;;;;5064606;28;19921;-68
2023/07/04 01:51:31;;;;;;;;;;;16.70;99.90;;;;;;5064666;28;19948;-68
2023/07/04 01:53:58;;;;;;;;;;;16.80;99.90;;;;;;5064586;28;19921;-67
2023/07/04 01:56:24;;;;;;;;;;;16.70;99.90;;;;;;5064499;28;19940;-68
2023/07/04 01:58:51;;;;;;;;;;;16.70;99.90;;;;;;5064617;28;19921;-68
2023/07/04 02:01:19;;;;;;;;;;;16.70;99.90;;;;;;5064738;28;19956;-68
2023/07/04 02:03:46;;;;;;;;;;;16.70;99.90;;;;;;5064744;28;19980;-68
2023/07/04 02:06:12;;;;;;;;;;;16.60;99.90;;;;;;5064473;28;19963;-68
2023/07/04 02:08:39;;;;;;;;;;;16.70;99.90;;;;;;5060650;28;19988;-73
2023/07/04 02:11:06;;;;;;;;;;;16.60;99.90;;;;;;5053888;28;19959;-68
2023/07/04 02:13:33;;;;;;;;;;;16.60;99.90;;;;;;5068209;28;20204;-68
2023/07/04 02:16:00;;;;;;;;;;;16.60;99.90;;;;;;5063753;28;19952;-67
2023/07/04 02:18:28;;;;;;;;;;;16.60;99.90;;;;;;5064055;28;19952;-68
2023/07/04 02:20:55;;;;;;;;;;;16.50;99.90;;;;;;5063358;28;20418;-68
2023/07/04 02:23:22;;;;;;;;;;;16.50;99.90;;;;;;5064476;28;19992;-68
2023/07/04 02:25:49;;;;;;;;;;;16.40;99.90;;;;;;5063972;28;19955;-68
2023/07/04 02:28:16;;;;;;;;;;;16.40;99.90;;;;;;5063701;28;20212;-68
2023/07/04 02:30:52;;;;;;;;;;;16.40;99.90;;;;;;5064194;28;19920;-69
2023/07/04 02:33:19;;;;;;;;;;;16.40;99.90;;;;;;5063987;28;19921;-68
2023/07/04 02:35:47;;;;;;;;;;;16.40;99.90;;;;;;5063646;28;19927;-68
2023/07/04 02:38:14;;;;;;;;;;;16.30;99.90;;;;;;5063895;28;19968;-68
2023/07/04 02:40:43;;;;;;;;;;;16.30;99.90;;;;;;5063674;28;20165;-67
2023/07/04 02:43:09;;;;;;;;;;;16.30;99.90;;;;;;5063993;28;19940;-67
2023/07/04 02:45:36;;;;;;;;;;;16.30;99.90;;;;;;5063884;28;19952;-68
2023/07/04 02:48:03;;;;;;;;;;;16.30;99.90;;;;;;5055561;28;19993;-68
2023/07/04 02:50:31;;;;;;;;;;;16.30;99.90;;;;;;5043256;28;20173;-68
2023/07/04 02:52:59;;;;;;;;;;;16.40;99.90;;;;;;5043997;28;19927;-68
2023/07/04 02:55:26;;;;;;;;;;;16.40;99.90;;;;;;5043291;28;20256;-68
2023/07/04 02:57:53;;;;;;;;;;;16.40;99.90;;;;;;5043295;28;19927;-68
2023/07/04 03:00:20;;;;;;;;;;;16.40;99.90;;;;;;5043976;28;19948;-68
2023/07/04 03:02:46;;;;;;;;;;;16.40;99.90;;;;;;5043821;28;20120;-68
2023/07/04 03:05:14;;;;;;;;;;;16.40;99.90;;;;;;5042401;28;19988;-68
2023/07/04 03:07:40;;;;;;;;;;;16.40;99.90;;;;;;5061626;28;19920;-67
2023/07/04 03:10:09;;;;;;;;;;;16.40;99.90;;;;;;5063667;28;19928;-68
2023/07/04 03:12:35;;;;;;;;;;;16.40;99.90;;;;;;5063455;28;20239;-68
2023/07/04 03:15:02;;;;;;;;;;;16.40;99.90;;;;;;5063721;28;19956;-68
2023/07/04 03:17:29;;;;;;;;;;;16.40;99.90;;;;;;5062988;28;19983;-67
2023/07/04 03:19:55;;;;;;;;;;;16.40;99.90;;;;;;5063159;28;19989;-68
2023/07/04 03:22:22;;;;;;;;;;;16.40;99.90;;;;;;5063307;28;19980;-68
2023/07/04 03:24:49;;;;;;;;;;;16.40;99.90;;;;;;5063510;28;19963;-68
2023/07/04 03:27:16;;;;;;;;;;;16.40;99.90;;;;;;5062976;28;20136;-68
2023/07/04 03:29:43;;;;;;;;;;;16.40;99.90;;;;;;5063173;28;19927;-67
2023/07/04 03:32:10;;;;;;;;;;;16.40;99.90;;;;;;5064057;28;19955;-68
2023/07/04 03:34:36;;;;;;;;;;;16.50;99.90;;;;;;5067320;28;20171;-68
2023/07/04 03:37:03;;;;;;;;;;;16.50;99.90;;;;;;5066926;28;19980;-67
2023/07/04 03:39:31;;;;;;;;;;;16.50;99.90;;;;;;5066037;28;19944;-68
2023/07/04 03:41:57;;;;;;;;;;;16.50;99.90;;;;;;5067235;28;19927;-68
2023/07/04 03:44:25;;;;;;;;;;;16.50;99.90;;;;;;5080790;28;19984;-68
2023/07/04 03:46:52;;;;;;;;;;;16.50;99.90;;;;;;5086999;28;19921;-68
2023/07/04 03:49:19;;;;;;;;;;;16.50;99.90;;;;;;5087202;28;19984;-68
2023/07/04 03:51:46;;;;;;;;;;;16.60;99.90;;;;;;5086458;28;19952;-68
2023/07/04 03:54:13;;;;;;;;;;;16.50;99.90;;;;;;5087092;28;19983;-67
2023/07/04 03:56:39;;;;;;;;;;;16.60;99.90;;;;;;5087243;28;19979;-68
2023/07/04 03:59:06;;;;;;;;;;;16.60;99.90;;;;;;5087030;28;19960;-68
2023/07/04 04:01:34;;;;;;;;;;;16.60;99.90;;;;;;5086548;28;19956;-67
2023/07/04 04:04:01;;;;;;;;;;;16.60;99.90;;;;;;5086678;28;19921;-68
2023/07/04 04:06:27;;;;;;;;;;;16.60;99.90;;;;;;5086735;28;19983;-68
2023/07/04 04:08:54;;;;;;;;;;;16.70;99.90;;;;;;5086282;28;19988;-68
2023/07/04 04:11:20;;;;;;;;;;;16.60;99.90;;;;;;5059135;28;19996;-68
2023/07/04 04:13:47;;;;;;;;;;;16.70;99.90;;;;;;5046840;28;19948;-68
2023/07/04 04:16:14;;;;;;;;;;;16.70;99.90;;;;;;5046565;28;20175;-67
2023/07/04 04:18:42;;;;;;;;;;;16.70;99.90;;;;;;5046314;28;19988;-68
2023/07/04 04:21:09;;;;;;;;;;;16.70;99.90;;;;;;5054858;28;19935;-68
2023/07/04 04:23:36;;;;;;;;;;;16.70;99.90;;;;;;5066797;28;19978;-68
2023/07/04 04:26:03;;;;;;;;;;;16.80;99.90;;;;;;5066295;28;20251;-68
2023/07/04 04:28:30;;;;;;;;;;;16.80;99.90;;;;;;5066245;28;19927;-67
2023/07/04 04:30:57;;;;;;;;;;;16.70;99.90;;;;;;5066221;28;19921;-68
2023/07/04 04:33:23;;;;;;;;;;;16.70;99.90;;;;;;5066478;28;19952;-67
2023/07/04 04:35:52;;;;;;;;;;;16.80;99.90;;;;;;5065535;28;19987;-67
2023/07/04 04:38:18;;;;;;;;;;;16.70;99.90;;;;;;5065947;28;19959;-68
2023/07/04 04:40:45;;;;;;;;;;;16.70;99.90;;;;;;5066040;28;19978;-68
2023/07/04 04:43:12;;;;;;;;;;;16.80;99.90;;;;;;5066347;28;19921;-67
2023/07/04 04:45:39;;;;;;;;;;;16.80;99.90;;;;;;5063017;28;19963;-68
2023/07/04 04:48:07;;;;;;;;;;;16.80;99.90;;;;;;5052045;28;19925;-68
2023/07/04 04:50:33;;;;;;;;;;;16.90;99.90;;;;;;5066080;28;19924;-67
2023/07/04 04:53:01;;;;;;;;;;;16.90;99.90;;;;;;5064848;28;19921;-68
2023/07/04 04:55:28;;;;;;;;;;;17.00;99.90;;;;;;5045527;28;20175;-69
2023/07/04 04:57:55;;;;;;;;;;;17.10;99.90;;;;;;5042020;28;19984;-68
2023/07/04 05:00:21;;;;;;;;;;;17.10;99.90;;;;;;5055420;28;19927;-67
2023/07/04 05:02:48;;;;;;;;;;;17.20;99.90;;;;;;5060481;28;20167;-69
2023/07/04 05:05:15;;;;;;;;;;;17.20;99.90;;;;;;5054819;28;19951;-67
2023/07/04 05:07:41;;;;;;;;;;;17.20;99.90;;;;;;5084815;28;20090;-68
2023/07/04 05:10:10;;;;;;;;;;;17.20;99.90;;;;;;5085471;28;19927;-67
2023/07/04 05:12:38;;;;;;;;;;;17.20;99.90;;;;;;5060687;28;19984;-68
2023/07/04 05:15:06;;;;;;;;;;;17.20;99.90;;;;;;5068661;28;19924;-68
2023/07/04 05:17:32;;;;;;;;;;;17.20;99.90;;;;;;5065169;28;19927;-68
2023/07/04 05:20:00;;;;;;;;;;;17.20;99.90;;;;;;5065677;28;19948;-68
2023/07/04 05:22:27;;;;;;;;;;;17.20;99.90;;;;;;5065326;28;19921;-67
2023/07/04 05:24:54;;;;;;;;;;;17.20;99.90;;;;;;5065276;28;19951;-67
2023/07/04 05:27:22;;;;;;;;;;;17.30;99.90;;;;;;5065115;28;20231;-67
2023/07/04 05:29:49;;;;;;;;;;;17.50;99.90;;;;;;5065140;28;19988;-67
2023/07/04 05:32:15;;;;;;;;;;;17.50;99.90;;;;;;5065011;28;19995;-68
2023/07/04 05:34:42;;;;;;;;;;;17.50;99.90;;;;;;5065227;28;19983;-68
2023/07/04 05:37:09;;;;;;;;;;;17.60;99.90;;;;;;5065088;28;20171;-67
2023/07/04 05:39:35;;;;;;;;;;;17.70;99.90;;;;;;5064470;28;19959;-67
2023/07/04 05:42:02;;;;;;;;;;;17.80;99.90;;;;;;5064209;28;19955;-67
2023/07/04 05:44:30;;;;;;;;;;;17.90;99.90;;;;;;5065193;28;19963;-67
2023/07/04 05:46:58;;;;;;;;;;;17.90;99.90;;;;;;5064227;28;19920;-70
2023/07/04 05:49:25;;;;;;;;;;;18.00;99.90;;;;;;5065131;28;19987;-70
2023/07/04 05:51:52;;;;;;;;;;;18.00;99.90;;;;;;5065013;28;19955;-70
2023/07/04 05:54:18;;;;;;;;;;;18.10;99.90;;;;;;5064878;28;19994;-70
2023/07/04 05:56:45;;;;;;;;;;;18.10;99.90;;;;;;5064051;28;19992;-70
2023/07/04 05:59:12;;;;;;;;;;;18.30;99.90;;;;;;5064859;28;19952;-72
2023/07/04 06:01:40;;;;;;;;;;;18.40;99.90;;;;;;5064764;28;19959;-71
2023/07/04 06:04:08;;;;;;;;;;;18.50;99.90;;;;;;5064550;28;19921;-71
2023/07/04 06:06:36;;;;;;;;;;;18.60;99.90;;;;;;5064854;28;19952;-71
2023/07/04 06:09:03;;;;;;;;;;;18.70;99.90;;;;;;5064446;28;19921;-72
2023/07/04 06:11:31;;;;;;;;;;;18.70;99.90;;;;;;5065518;28;19992;-71
2023/07/04 06:13:58;;;;;;;;;;;18.70;99.90;;;;;;5065039;28;19927;-71
2023/07/04 06:16:24;;;;;;;;;;;18.70;99.90;;;;;;5065222;28;19927;-71
2023/07/04 06:18:52;;;;;;;;;;;18.70;99.90;;;;;;5064935;28;19928;-71
2023/07/04 06:21:20;;;;;;;;;;;18.70;99.90;;;;;;5063955;28;19952;-70
2023/07/04 06:23:47;;;;;;;;;;;18.70;99.90;;;;;;5064184;28;20000;-70
2023/07/04 06:26:15;;;;;;;;;;;18.60;99.90;;;;;;5064369;28;19989;-70
2023/07/04 06:28:42;;;;;;;;;;;18.60;99.90;;;;;;5063487;28;19921;-70
2023/07/04 06:31:11;;;;;;;;;;;18.60;99.90;;;;;;5064032;28;19956;-69
2023/07/04 06:33:38;;;;;;;;;;;18.70;99.90;;;;;;5064149;28;20212;-70
2023/07/04 06:36:07;;;;;;;;;;;18.70;99.90;;;;;;5063891;28;19984;-70
2023/07/04 06:38:34;;;;;;;;;;;18.80;99.90;;;;;;5064028;28;19984;-69
2023/07/04 06:41:02;;;;;;;;;;;18.80;99.90;;;;;;5064009;28;20187;-71
2023/07/04 06:43:30;;;;;;;;;;;18.80;99.90;;;;;;5064122;28;19920;-70
2023/07/04 06:45:57;;;;;;;;;;;18.80;99.90;;;;;;5064286;28;19963;-70
2023/07/04 06:48:24;;;;;;;;;;;18.90;99.90;;;;;;5048935;28;20209;-70
2023/07/04 06:50:55;;;;;;;;;;;18.90;99.90;;;;;;5043680;28;20212;-70
2023/07/04 06:53:24;;;;;;;;;;;18.90;99.90;;;;;;5043222;28;20288;-70
2023/07/04 06:55:50;;;;;;;;;;;19.00;99.90;;;;;;5043899;28;20120;-70
2023/07/04 06:58:17;;;;;;;;;;;19.00;99.90;;;;;;5043798;28;20119;-70
2023/07/04 07:00:43;;;;;;;;;;;19.00;99.90;;;;;;5046103;28;19921;-71
2023/07/04 07:03:10;;;;;;;;;;;19.00;99.90;;;;;;5055770;28;19952;-70
2023/07/04 07:05:37;;;;;;;;;;;19.00;99.90;;;;;;5062716;28;19984;-70
2023/07/04 07:08:04;;;;;;;;;;;19.00;99.90;;;;;;5062390;28;19927;-71
2023/07/04 07:10:36;;;;;;;;;;;19.10;99.90;;;;;;5063200;28;19989;-70
2023/07/04 07:13:03;;;;;;;;;;;19.20;99.90;;;;;;5063161;28;19921;-70
2023/07/04 07:15:29;;;;;;;;;;;19.20;99.90;;;;;;5063316;28;19988;-71
2023/07/04 07:17:56;;;;;;;;;;;19.20;99.90;;;;;;5057081;28;19979;-70
2023/07/04 07:20:23;;;;;;;;;;;19.20;99.90;;;;;;5055840;28;19979;-71
2023/07/04 07:22:49;;;;;;;;;;;19.30;99.90;;;;;;5047073;28;19928;-70
2023/07/04 07:25:16;;;;;;;;;;;19.40;99.90;;;;;;5043924;28;19967;-71
2023/07/04 07:27:44;;;;;;;;;;;19.50;99.90;;;;;;5062999;28;19984;-71
2023/07/04 07:30:11;;;;;;;;;;;19.50;99.90;;;;;;5063302;28;19921;-71
2023/07/04 07:32:38;;;;;;;;;;;19.60;99.90;;;;;;5062866;28;19947;-70
2023/07/04 07:35:05;;;;;;;;;;;19.70;99.90;;;;;;5061944;28;20108;-70
2023/07/04 07:37:31;;;;;;;;;;;19.80;99.90;;;;;;5062229;28;19921;-70
2023/07/04 07:39:58;;;;;;;;;;;19.90;99.90;;;;;;5062848;28;19959;-70
2023/07/04 07:42:24;;;;;;;;;;;20.00;99.90;;;;;;5055369;28;19955;-70
2023/07/04 07:44:52;;;;;;;;;;;20.10;99.90;;;;;;5061249;28;20204;-70
2023/07/04 07:47:19;;;;;;;;;;;20.10;99.90;;;;;;5051774;28;20112;-71
2023/07/04 07:49:46;;;;;;;;;;;20.20;99.90;;;;;;5061359;28;19927;-69
2023/07/04 07:52:12;;;;;;;;;;;20.20;99.90;;;;;;5061403;28;19927;-70
2023/07/04 07:54:39;;;;;;;;;;;20.30;99.90;;;;;;5062815;28;20172;-69
2023/07/04 07:57:06;;;;;;;;;;;20.40;99.90;;;;;;5062096;28;20000;-69
2023/07/04 07:59:33;;;;;;;;;;;20.40;99.90;;;;;;5061814;28;20270;-69
2023/07/04 08:02:01;;;;;;;;;;;20.40;99.90;;;;;;5062557;28;20119;-70
2023/07/04 08:04:27;;;;;;;;;;;20.50;99.90;;;;;;5062983;28;19921;-70
2023/07/04 08:06:54;;;;;;;;;;;20.40;99.90;;;;;;5062950;28;19927;-70
2023/07/04 08:09:21;;;;;;;;;;;20.50;99.90;;;;;;5062325;28;19920;-69
2023/07/04 08:11:48;;;;;;;;;;;20.40;99.90;;;;;;5062562;28;19959;-67
2023/07/04 08:14:15;;;;;;;;;;;20.40;99.90;;;;;;5062571;28;20201;-67
2023/07/04 08:16:43;;;;;;;;;;;20.30;99.90;;;;;;5062798;28;20086;-67
2023/07/04 08:19:11;;;;;;;;;;;20.20;99.90;;;;;;5063275;28;19921;-67
2023/07/04 08:21:38;;;;;;;;;;;20.20;99.90;;;;;;5064655;28;19984;-69
2023/07/04 08:24:10;;;;;;;;;;;20.10;99.90;;;;;;5063724;28;20157;-68
2023/07/04 08:26:37;;;;;;;;;;;20.10;99.90;;;;;;5066479;28;19920;-68
2023/07/04 08:29:03;;;;;;;;;;;20.10;99.90;;;;;;5065954;28;19984;-68
2023/07/04 08:31:30;;;;;;;;;;;20.10;99.90;;;;;;5052844;28;19944;-67
2023/07/04 08:33:57;;;;;;;;;;;20.20;99.90;;;;;;5046369;28;19984;-67
2023/07/04 08:36:26;;;;;;;;;;;20.30;99.90;;;;;;5045395;28;19993;-67
2023/07/04 08:38:53;;;;;;;;;;;20.30;99.90;;;;;;5045886;28;19927;-68
2023/07/04 08:41:26;;;;;;;;;;;20.30;99.90;;;;;;5055242;28;19943;-67
2023/07/04 08:43:57;;;;;;;;;;;20.30;99.90;;;;;;5066068;28;19927;-68
2023/07/04 08:46:23;;;;;;;;;;;20.30;99.90;;;;;;5065993;28;19920;-68
2023/07/04 08:48:50;;;;;;;;;;;20.40;99.90;;;;;;5065556;28;19991;-67
2023/07/04 08:51:20;;;;;;;;;;;20.50;99.90;;;;;;5065787;28;19988;-67
2023/07/04 08:53:52;;;;;;;;;;;20.50;99.90;;;;;;5045596;28;19921;-68
2023/07/04 08:56:25;;;;;;;;;;;20.70;99.90;;;;;;5052555;28;19921;-67
2023/07/04 08:58:57;;;;;;;;;;;20.80;99.90;;;;;;5065595;28;19921;-67
2023/07/04 09:01:33;;;;;;;;;;;20.90;99.90;;;;;;5065746;28;19920;-68
2023/07/04 09:04:01;;;;;;;;;;;20.90;99.90;;;;;;5065836;28;19921;-68
2023/07/04 09:06:31;;;;;;;;;;;20.90;99.90;;;;;;5065848;28;19984;-68
2023/07/04 09:09:02;;;;;;;;;;;21.00;99.90;;;;;;5065235;28;19928;-67
2023/07/04 09:11:29;;;;;;;;;;;21.20;99.90;;;;;;5065281;28;19957;-68
2023/07/04 09:14:02;;;;;;;;;;;21.30;99.90;;;;;;5065134;28;19921;-68
2023/07/04 09:16:32;;;;;;;;;;;21.60;99.90;;;;;;5065469;28;19921;-68
2023/07/04 09:19:00;;;;;;;;;;;21.80;99.90;;;;;;5065250;28;19920;-67
2023/07/04 09:21:28;;;;;;;;;;;21.90;99.90;;;;;;5065156;28;20031;-67
2023/07/04 09:23:56;;;;;;;;;;;21.80;99.90;;;;;;5065185;28;19921;-67
2023/07/04 09:26:25;;;;;;;;;;;21.90;99.90;;;;;;5065291;28;19921;-68
2023/07/04 09:28:52;;;;;;;;;;;21.90;99.90;;;;;;5064987;28;19925;-68
2023/07/04 09:31:20;;;;;;;;;;;21.90;99.90;;;;;;5050926;28;19921;-68
2023/07/04 09:33:48;;;;;;;;;;;22.00;99.90;;;;;;5045109;28;19921;-67
2023/07/04 09:36:16;;;;;;;;;;;22.20;99.90;;;;;;5045254;28;20263;-68
2023/07/04 09:39:00;;;;;;;;;;;22.10;99.90;;;;;;5044940;28;19952;-68
2023/07/04 09:41:31;;;;;;;;;;;22.00;99.90;;;;;;5045098;28;19964;-68
2023/07/04 09:44:11;;;;;;;;;;;22.00;99.90;;;;;;5045116;28;19921;-67
2023/07/04 09:46:38;;;;;;;;;;;21.80;99.90;;;;;;5044968;28;19921;-68
2023/07/04 09:49:21;;;;;;;;;;;21.70;99.90;;;;;;5044587;28;20112;-68
2023/07/04 09:51:57;;;;;;;;;;;21.70;99.90;;;;;;5063281;28;19929;-68
2023/07/04 09:54:23;;;;;;;;;;;21.80;99.90;;;;;;5064600;28;19984;-67
2023/07/04 09:56:51;;;;;;;;;;;22.00;99.90;;;;;;5064697;28;19984;-68
2023/07/04 09:59:19;;;;;;;;;;;22.10;99.90;;;;;;5064425;28;19988;-68
2023/07/04 10:01:46;;;;;;;;;;;22.30;99.90;;;;;;5064632;28;19921;-67
2023/07/04 10:04:14;;;;;;;;;;;22.50;99.90;;;;;;5064750;28;20155;-67
2023/07/04 10:06:43;;;;;;;;;;;22.60;99.90;;;;;;5064246;28;19927;-71
2023/07/04 10:09:17;;;;;;;;;;;22.70;99.90;;;;;;5064085;28;19924;-68
2023/07/04 10:11:44;;;;;;;;;;;22.70;99.90;;;;;;5064376;28;19921;-67
2023/07/04 10:14:13;;;;;;;;;;;22.70;99.90;;;;;;5064252;28;19984;-68
2023/07/04 10:16:51;;;;;;;;;;;22.70;99.90;;;;;;5064294;28;19920;-69
2023/07/04 10:19:19;;;;;;;;;;;22.80;99.90;;;;;;5064312;28;19921;-69
2023/07/04 10:21:48;;;;;;;;;;;22.90;99.90;;;;;;5064249;28;20472;-68
2023/07/04 10:24:17;;;;;;;;;;;22.90;99.90;;;;;;5063927;28;19921;-68
2023/07/04 10:26:44;;;;;;;;;;;22.90;99.90;;;;;;5064127;28;19929;-68
2023/07/04 10:29:13;;;;;;;;;;;22.80;99.90;;;;;;5063517;28;19991;-70
2023/07/04 10:31:40;;;;;;;;;;;22.70;99.90;;;;;;5063814;28;20115;-68
2023/07/04 10:34:08;;;;;;;;;;;22.70;99.90;;;;;;5063961;28;19956;-68
2023/07/04 10:36:36;;;;;;;;;;;22.80;99.90;;;;;;5063685;28;19921;-67
2023/07/04 10:39:05;;;;;;;;;;;22.90;99.90;;;;;;5063750;28;19920;-70
2023/07/04 10:41:35;;;;;;;;;;;23.00;99.90;;;;;;5063362;28;19928;-68
2023/07/04 10:44:04;;;;;;;;;;;23.20;99.90;;;;;;5063924;28;19959;-68
2023/07/04 10:46:37;;;;;;;;;;;23.40;99.90;;;;;;5063746;28;19920;-68
2023/07/04 10:49:07;;;;;;;;;;;23.70;99.90;;;;;;5063251;28;19928;-69
2023/07/04 10:51:36;;;;;;;;;;;24.00;99.90;;;;;;5063466;28;20097;-68
2023/07/04 10:54:02;;;;;;;;;;;24.00;99.90;;;;;;5063527;28;19927;-68
2023/07/04 10:56:32;;;;;;;;;;;24.00;99.90;;;;;;5063775;28;19924;-68
2023/07/04 10:59:02;;;;;;;;;;;24.10;99.90;;;;;;5063294;28;20204;-68
2023/07/04 11:01:31;;;;;;;;;;;24.30;99.90;;;;;;5063208;28;20178;-68
2023/07/04 11:04:01;;;;;;;;;;;24.30;99.90;;;;;;5063639;28;19925;-68
2023/07/04 11:06:30;;;;;;;;;;;24.30;99.90;;;;;;5063474;28;20116;-68
2023/07/04 11:08:57;;;;;;;;;;;24.50;99.90;;;;;;5054479;28;20247;-69
2023/07/04 11:11:26;;;;;;;;;;;24.60;99.90;;;;;;5043468;28;19928;-67
2023/07/04 11:13:56;;;;;;;;;;;24.70;99.90;;;;;;5043416;28;19921;-69
2023/07/04 11:16:24;;;;;;;;;;;24.80;99.90;;;;;;5043245;28;20255;-68
2023/07/04 11:18:59;;;;;;;;;;;24.70;99.90;;;;;;5049134;28;20115;-68
2023/07/04 11:21:27;;;;;;;;;;;24.70;99.90;;;;;;5062955;28;19980;-67
2023/07/04 11:24:09;;;;;;;;;;;24.70;99.90;;;;;;5061802;28;20276;-67
2023/07/04 11:26:50;;;;;;;;;;;24.70;99.90;;;;;;5062376;28;19921;-68
2023/07/04 11:29:18;;;;;;;;;;;24.50;99.90;;;;;;5062820;28;19995;-69
2023/07/04 11:32:03;;;;;;;;;;;24.40;99.90;;;;;;5062931;28;19928;-69
2023/07/04 11:34:42;;;;;;;;;;;24.30;99.90;;;;;;5062797;28;19921;-68
2023/07/04 11:37:10;;;;;;;;;;;24.20;99.90;;;;;;5062948;28;19924;-68
2023/07/04 11:39:37;;;;;;;;;;;24.40;99.90;;;;;;5063134;28;19925;-68
2023/07/04 11:42:16;;;;;;;;;;;24.50;99.90;;;;;;5060610;28;19921;-68
2023/07/04 11:44:48;;;;;;;;;;;24.70;99.90;;;;;;5059166;28;19983;-68
2023/07/04 11:47:18;;;;;;;;;;;25.00;99.90;;;;;;5062477;28;19988;-68
2023/07/04 11:49:54;;;;;;;;;;;25.20;99.90;;;;;;5062941;28;19927;-68
2023/07/04 11:52:25;;;;;;;;;;;25.30;99.90;;;;;;5062858;28;19927;-69
2023/07/04 11:54:56;;;;;;;;;;;25.40;99.90;;;;;;5059413;28;19967;-68
2023/07/04 11:57:22;;;;;;;;;;;25.20;99.90;;;;;;5046489;28;19936;-69
2023/07/04 11:59:49;;;;;;;;;;;25.10;99.90;;;;;;5053719;28;19952;-68
2023/07/04 12:02:26;;;;;;;;;;;25.10;99.90;;;;;;5066875;28;19992;-69
2023/07/04 12:04:53;;;;;;;;;;;25.10;99.90;;;;;;5066841;28;19924;-68
2023/07/04 12:07:34;;;;;;;;;;;25.00;99.90;;;;;;5066497;28;19921;-68
2023/07/04 12:10:06;;;;;;;;;;;25.10;99.90;;;;;;5044523;28;19927;-68
2023/07/04 12:12:34;;;;;;;;;;;25.20;99.90;;;;;;5046710;28;19921;-68
2023/07/04 12:15:02;;;;;;;;;;;25.40;99.30;;;;;;5046151;28;19943;-69
2023/07/04 12:17:29;;;;;;;;;;;25.50;99.50;;;;;;5046208;28;19959;-69
2023/07/04 12:20:00;;;;;;;;;;;25.60;99.50;;;;;;5046771;28;20001;-68
2023/07/04 12:22:27;;;;;;;;;;;25.80;99.00;;;;;;5046241;28;19920;-69
2023/07/04 12:24:54;;;;;;;;;;;26.20;98.90;;;;;;5046160;28;19984;-69
2023/07/04 12:27:27;;;;;;;;;;;26.50;98.60;;;;;;5045912;28;19921;-69
2023/07/04 12:29:53;;;;;;;;;;;26.80;97.80;;;;;;5059459;28;20119;-70
2023/07/04 12:32:21;;;;;;;;;;;26.90;97.50;;;;;;5066311;28;19920;-69
2023/07/04 12:34:48;;;;;;;;;;;26.80;97.30;;;;;;5065923;28;19964;-68
2023/07/04 12:37:19;;;;;;;;;;;26.50;97.10;;;;;;5066130;28;19983;-68
2023/07/04 12:39:48;;;;;;;;;;;26.50;97.00;;;;;;5066227;28;19963;-70
2023/07/04 12:42:17;;;;;;;;;;;26.60;97.10;;;;;;5065967;28;19920;-69
2023/07/04 12:44:45;;;;;;;;;;;26.60;97.20;;;;;;5046019;28;19921;-68
2023/07/04 12:47:15;;;;;;;;;;;26.60;97.40;;;;;;5045910;28;19921;-68
2023/07/04 12:49:42;;;;;;;;;;;26.50;97.20;;;;;;5057541;28;19927;-69
2023/07/04 12:52:09;;;;;;;;;;;26.50;96.90;;;;;;5065799;28;20109;-68
2023/07/04 12:54:37;;;;;;;;;;;26.70;97.10;;;;;;5065897;28;20168;-68
2023/07/04 12:57:04;;;;;;;;;;;26.90;96.70;;;;;;5065617;28;19921;-69
2023/07/04 12:59:31;;;;;;;;;;;27.10;95.90;;;;;;5065733;28;19988;-68
2023/07/04 13:01:59;;;;;;;;;;;27.10;96.40;;;;;;5065652;28;19921;-70
2023/07/04 13:04:26;;;;;;;;;;;27.10;95.50;;;;;;5065719;28;19927;-68
2023/07/04 13:06:53;;;;;;;;;;;27.00;95.90;;;;;;5065149;28;19921;-68
2023/07/04 13:09:20;;;;;;;;;;;27.00;96.30;;;;;;5053634;28;19921;-68
2023/07/04 13:11:47;;;;;;;;;;;26.90;94.90;;;;;;5045312;28;19944;-68
2023/07/04 13:14:13;;;;;;;;;;;26.80;95.20;;;;;;5045555;28;19922;-68
2023/07/04 13:16:40;;;;;;;;;;;27.10;95.10;;;;;;5045363;28;19942;-69
2023/07/04 13:19:18;;;;;;;;;;;27.10;94.40;;;;;;5051453;28;19936;-69
2023/07/04 13:21:47;;;;;;;;;;;27.20;95.10;;;;;;5065208;28;19921;-68
2023/07/04 13:24:30;;;;;;;;;;;27.30;94.50;;;;;;5065267;28;19921;-68
2023/07/04 13:27:08;;;;;;;;;;;27.50;94.80;;;;;;5064811;28;19920;-69
2023/07/04 13:29:35;;;;;;;;;;;27.40;94.20;;;;;;5065088;28;19984;-68
2023/07/04 13:32:02;;;;;;;;;;;27.10;93.50;;;;;;5065174;28;19927;-70
2023/07/04 13:34:31;;;;;;;;;;;27.00;93.60;;;;;;5065490;28;20157;-68
2023/07/04 13:37:00;;;;;;;;;;;26.90;94.00;;;;;;5063732;28;19987;-67
2023/07/04 13:39:27;;;;;;;;;;;26.70;94.50;;;;;;5064623;28;19928;-69
2023/07/04 13:41:55;;;;;;;;;;;26.70;94.20;;;;;;5064323;28;19921;-69
2023/07/04 13:44:22;;;;;;;;;;;26.70;94.60;;;;;;5065184;28;20125;-67
2023/07/04 13:46:48;;;;;;;;;;;27.00;94.60;;;;;;5064764;28;19984;-68
2023/07/04 13:49:15;;;;;;;;;;;27.30;94.30;;;;;;5064917;28;19927;-69
2023/07/04 13:51:44;;;;;;;;;;;27.70;94.30;;;;;;5064914;28;19983;-68
2023/07/04 13:54:11;;;;;;;;;;;28.00;93.70;;;;;;5065028;28;19927;-69
2023/07/04 13:56:38;;;;;;;;;;;27.90;93.90;;;;;;5064860;28;19921;-69
2023/07/04 13:59:04;;;;;;;;;;;28.00;93.10;;;;;;5064840;28;20010;-67
2023/07/04 14:01:31;;;;;;;;;;;28.10;92.50;;;;;;5064586;28;20260;-68
2023/07/04 14:03:57;;;;;;;;;;;28.10;92.70;;;;;;5064981;28;19927;-69
2023/07/04 14:06:24;;;;;;;;;;;28.20;92.60;;;;;;5064781;28;19987;-68
2023/07/04 14:08:52;;;;;;;;;;;28.30;92.30;;;;;;5064402;28;19956;-69
2023/07/04 14:11:20;;;;;;;;;;;28.40;92.00;;;;;;5064195;28;20226;-69
2023/07/04 14:13:47;;;;;;;;;;;28.50;91.90;;;;;;5064655;28;19920;-68
2023/07/04 14:16:16;;;;;;;;;;;28.70;91.80;;;;;;5064406;28;19920;-69
2023/07/04 14:18:43;;;;;;;;;;;28.70;91.30;;;;;;5063834;28;19955;-68
2023/07/04 14:21:11;;;;;;;;;;;28.80;91.30;;;;;;5064361;28;19935;-69